createdAt,value
2019-02-28T00:01:47.506Z,13.20
2019-02-28T00:05:52.079Z,14.45
2019-02-28T00:09:57.331Z,14.63
2019-02-28T00:14:02.868Z,15.38
2019-02-28T00:18:07.401Z,14.93
2019-02-28T00:22:14.650Z,14.87
2019-02-28T00:26:18.233Z,16.70
2019-02-28T00:30:22.803Z,17.73
2019-02-28T00:34:27.368Z,17.83
2019-02-28T00:38:31.956Z,19.20
2019-02-28T00:42:36.906Z,23.00
2019-02-28T00:46:45.191Z,23.67
2019-02-28T00:50:47.730Z,23.83
2019-02-28T00:54:52.349Z,25.57
2019-02-28T00:58:57.017Z,26.97
2019-02-28T01:03:01.629Z,28.15
2019-02-28T01:07:06.197Z,30.62
2019-02-28T01:11:13.293Z,29.72
2019-02-28T01:15:17.151Z,30.70
2019-02-28T01:19:21.677Z,31.33
2019-02-28T01:23:29.394Z,33.13
2019-02-28T01:27:32.516Z,36.00
2019-02-28T01:31:37.118Z,36.17
2019-02-28T01:35:41.674Z,35.43
2019-02-28T01:39:46.237Z,32.55
2019-02-28T01:43:50.801Z,34.70
2019-02-28T01:47:55.387Z,37.25
2019-02-28T01:51:59.967Z,39.08
2019-02-28T01:56:04.554Z,38.03
2019-02-28T02:00:11.496Z,39.30
2019-02-28T02:04:16.175Z,40.90
2019-02-28T02:08:20.747Z,41.73
2019-02-28T02:12:25.352Z,43.13
2019-02-28T02:16:29.928Z,44.15
2019-02-28T02:20:34.496Z,41.02
2019-02-28T02:24:39.022Z,46.30
2019-02-28T02:36:54.197Z,46.27
2019-02-28T02:41:00.383Z,50.12
2019-02-28T02:45:05.000Z,48.92
2019-02-28T02:49:09.189Z,47.83
2019-02-28T02:53:13.847Z,49.77
2019-02-28T02:57:18.447Z,47.65
2019-02-28T03:01:23.410Z,46.53
2019-02-28T03:05:35.338Z,48.17
2019-02-28T03:09:35.228Z,51.65
2019-02-28T03:13:43.553Z,53.93
2019-02-28T03:17:47.131Z,51.83
2019-02-28T03:21:52.987Z,55.70
2019-02-28T03:26:05.747Z,52.05
2019-02-28T03:30:03.849Z,55.85
2019-02-28T03:34:13.253Z,55.43
2019-02-28T03:42:28.586Z,54.15
2019-02-28T03:46:30.150Z,58.75
2019-02-28T03:50:34.737Z,57.40
2019-02-28T03:54:39.294Z,58.73
2019-02-28T04:00:42.642Z,58.02
2019-02-28T04:05:41.701Z,55.05
2019-02-28T04:11:10.234Z,52.55
2019-02-28T04:15:14.962Z,49.65
2019-02-28T04:19:22.632Z,51.08
2019-02-28T04:23:25.774Z,51.23
2019-02-28T04:27:30.363Z,51.25
2019-02-28T04:31:34.864Z,52.67
2019-02-28T04:35:39.434Z,54.10
2019-02-28T04:39:44.011Z,54.00
2019-02-28T04:43:48.582Z,51.77
2019-02-28T04:47:53.167Z,50.40
2019-02-28T04:51:57.690Z,53.33
2019-02-28T05:00:10.588Z,54.08
2019-02-28T05:16:33.010Z,56.98
2019-02-28T05:20:37.552Z,62.47
2019-02-28T05:27:11.076Z,55.28
2019-02-28T05:31:15.672Z,51.18
2019-02-28T05:40:11.472Z,53.48
2019-02-28T05:44:16.065Z,56.05
2019-02-28T05:50:00.845Z,56.18
2019-02-28T06:00:02.926Z,62.83
2019-02-28T06:04:07.785Z,58.68
2019-02-28T06:08:12.316Z,55.03
2019-02-28T06:12:17.119Z,56.90
2019-02-28T06:16:21.685Z,60.70
2019-02-28T06:23:02.835Z,67.67
2019-02-28T06:27:07.616Z,64.97
2019-02-28T06:31:14.371Z,65.52
2019-02-28T06:36:14.649Z,70.42
2019-02-28T06:40:21.980Z,66.83
2019-02-28T06:44:27.026Z,72.40
2019-02-28T06:48:32.220Z,68.78
2019-02-28T06:55:38.402Z,70.80
2019-02-28T06:59:42.911Z,69.70
2019-02-28T07:03:53.436Z,70.97
2019-02-28T07:09:33.543Z,68.83
2019-02-28T07:13:39.826Z,66.37
2019-02-28T07:17:46.597Z,68.50
2019-02-28T07:21:50.252Z,67.75
2019-02-28T07:25:54.784Z,68.00
2019-02-28T07:29:59.395Z,68.30
2019-02-28T07:36:24.109Z,67.92
2019-02-28T07:44:21.194Z,67.12
2019-02-28T07:48:26.845Z,72.17
2019-02-28T07:52:32.408Z,66.28
2019-02-28T07:57:34.016Z,66.02
2019-02-28T08:01:38.592Z,67.32
2019-02-28T08:05:43.156Z,68.07
2019-02-28T08:09:47.739Z,69.83
2019-02-28T08:13:52.313Z,67.60
2019-02-28T08:18:53.719Z,67.85
2019-02-28T08:22:58.320Z,75.60
2019-02-28T08:27:03.353Z,69.45
2019-02-28T08:31:08.501Z,73.30
2019-02-28T08:35:13.546Z,71.72
2019-02-28T08:41:25.718Z,75.92
2019-02-28T08:45:32.730Z,72.83
2019-02-28T08:49:42.170Z,72.72
2019-02-28T08:53:41.817Z,74.70
2019-02-28T08:57:54.517Z,77.67
2019-02-28T09:01:52.594Z,68.40
2019-02-28T09:05:57.148Z,65.50
2019-02-28T09:10:01.710Z,72.03
2019-02-28T09:14:06.264Z,79.07
2019-02-28T09:18:10.851Z,71.03
2019-02-28T09:22:15.397Z,70.60
2019-02-28T09:26:19.943Z,69.83
2019-02-28T09:30:29.745Z,71.67
2019-02-28T09:34:33.545Z,77.07
2019-02-28T09:38:38.135Z,76.93
2019-02-28T09:42:44.523Z,69.33
2019-02-28T09:46:50.682Z,67.80
2019-02-28T09:50:58.259Z,80.07
2019-02-28T09:55:01.363Z,70.67
2019-02-28T09:59:05.916Z,71.20
2019-02-28T10:03:10.494Z,69.40
2019-02-28T10:07:15.060Z,73.77
2019-02-28T10:15:20.569Z,73.57
2019-02-28T10:19:25.163Z,68.07
2019-02-28T10:23:29.722Z,55.80
2019-02-28T10:31:39.280Z,64.30
2019-02-28T10:35:43.821Z,63.37
2019-02-28T10:39:48.412Z,60.57
2019-02-28T10:43:55.791Z,62.13
2019-02-28T10:48:02.893Z,60.70
2019-02-28T10:52:05.410Z,65.57
2019-02-28T10:56:09.924Z,64.70
2019-02-28T11:00:20.925Z,60.13
2019-02-28T11:04:25.591Z,65.73
2019-02-28T11:08:30.152Z,60.63
2019-02-28T11:12:34.988Z,63.93
2019-02-28T11:16:39.516Z,59.13
2019-02-28T11:20:44.334Z,61.07
2019-02-28T11:28:51.976Z,61.73
2019-02-28T11:32:56.661Z,68.37
2019-02-28T11:37:01.184Z,65.10
2019-02-28T11:41:05.859Z,62.43
2019-02-28T11:45:14.522Z,58.97
2019-02-28T11:49:19.078Z,64.20
2019-02-28T11:53:23.653Z,68.63
2019-02-28T12:00:39.452Z,57.53
2019-02-28T12:07:05.339Z,55.30
2019-02-28T12:11:09.934Z,63.27
2019-02-28T12:15:15.384Z,64.57
2019-02-28T12:19:19.955Z,62.00
2019-02-28T12:23:24.509Z,60.37
2019-02-28T12:27:29.040Z,65.63
2019-02-28T12:31:35.586Z,56.70
2019-02-28T12:35:40.667Z,54.50
2019-02-28T12:39:45.484Z,61.90
2019-02-28T12:43:50.049Z,55.60
2019-02-28T12:47:54.571Z,68.87
2019-02-28T12:51:59.105Z,64.67
2019-02-28T12:56:03.667Z,67.63
2019-02-28T13:00:19.848Z,58.40
2019-02-28T13:04:22.917Z,56.30
2019-02-28T13:08:27.425Z,51.07
2019-02-28T13:12:32.017Z,52.23
2019-02-28T13:16:36.573Z,60.90
2019-02-28T13:20:41.088Z,49.77
2019-02-28T13:24:46.398Z,50.80
2019-02-28T13:28:54.616Z,53.03
2019-02-28T13:32:58.173Z,52.30
2019-02-28T13:37:03.257Z,52.47
2019-02-28T13:41:08.001Z,51.97
2019-02-28T13:45:19.262Z,49.53
2019-02-28T13:49:20.212Z,53.37
2019-02-28T13:53:27.074Z,47.83
2019-02-28T13:57:30.976Z,53.30
2019-02-28T14:01:35.545Z,56.33
2019-02-28T14:05:41.574Z,52.07
2019-02-28T14:09:46.349Z,53.27
2019-02-28T14:13:50.949Z,49.40
2019-02-28T14:17:55.510Z,53.57
2019-02-28T14:22:00.061Z,55.97
2019-02-28T14:26:05.128Z,54.77
2019-02-28T14:30:11.640Z,53.60
2019-02-28T14:34:16.216Z,55.43
2019-02-28T14:38:20.771Z,55.30
2019-02-28T14:42:25.349Z,50.43
2019-02-28T14:46:29.904Z,58.47
2019-02-28T14:50:34.438Z,56.03
2019-02-28T14:54:38.999Z,53.83
2019-02-28T14:58:43.561Z,59.97
2019-02-28T15:02:48.219Z,58.07
2019-02-28T15:06:52.813Z,57.80
2019-02-28T15:10:57.379Z,60.77
2019-02-28T15:15:01.957Z,57.20
2019-02-28T15:19:06.519Z,58.03
2019-02-28T15:23:11.085Z,57.73
2019-02-28T15:27:15.802Z,56.10
2019-02-28T15:31:20.344Z,55.73
2019-02-28T15:35:24.943Z,60.43
2019-02-28T15:39:29.500Z,53.60
2019-02-28T15:43:34.129Z,63.67
2019-02-28T15:47:38.710Z,72.80
2019-02-28T15:51:43.309Z,66.30
2019-02-28T15:55:47.990Z,62.23
2019-02-28T15:59:52.542Z,65.70
2019-02-28T16:03:57.137Z,62.50
2019-02-28T16:08:01.656Z,63.23
2019-02-28T16:12:06.250Z,61.73
2019-02-28T16:16:10.838Z,57.97
2019-02-28T16:20:15.449Z,58.33
2019-02-28T16:24:20.030Z,66.27
2019-02-28T16:28:24.597Z,60.30
2019-02-28T16:32:29.999Z,58.43
2019-02-28T16:36:34.793Z,56.73
2019-02-28T16:40:39.362Z,60.97
2019-02-28T16:44:43.931Z,58.47
2019-02-28T16:48:48.462Z,62.07
2019-02-28T16:52:53.044Z,63.43
2019-02-28T16:56:57.603Z,57.33
2019-02-28T17:01:02.157Z,61.77
2019-02-28T17:07:17.667Z,62.90
2019-02-28T17:11:22.268Z,59.40
2019-02-28T17:15:33.829Z,59.10
2019-02-28T17:19:38.345Z,58.83
2019-02-28T17:23:42.919Z,58.90
2019-02-28T17:27:55.933Z,61.70
2019-02-28T17:32:00.552Z,58.40
2019-02-28T17:36:08.328Z,62.03
2019-02-28T17:40:12.689Z,58.67
2019-02-28T17:44:59.934Z,62.87
2019-02-28T17:49:41.822Z,60.97
2019-02-28T17:54:36.345Z,59.77
2019-02-28T17:59:14.911Z,63.37
2019-02-28T18:03:45.075Z,64.50
2019-02-28T18:08:36.728Z,64.80
2019-02-28T18:13:03.155Z,63.40
2019-02-28T18:18:05.378Z,59.17
2019-02-28T18:22:30.309Z,56.67
2019-02-28T18:27:11.749Z,64.33
2019-02-28T18:31:19.174Z,67.80
2019-02-28T18:35:23.509Z,62.70
2019-02-28T18:39:28.131Z,63.20
2019-02-28T18:43:32.699Z,77.17
2019-02-28T18:47:39.672Z,65.13
2019-02-28T18:51:43.521Z,63.27
2019-02-28T18:55:48.093Z,72.80
2019-02-28T18:59:52.645Z,61.80
2019-02-28T19:03:57.193Z,62.33
2019-02-28T19:08:01.878Z,64.23
2019-02-28T19:12:06.591Z,71.17
2019-02-28T19:16:11.146Z,65.07
2019-02-28T19:20:15.709Z,83.23
2019-02-28T19:24:20.249Z,97.23
2019-02-28T19:28:24.819Z,91.10
2019-02-28T19:32:29.360Z,84.13
2019-02-28T19:36:33.927Z,63.37
2019-02-28T19:40:38.519Z,57.57
2019-02-28T19:44:43.029Z,59.93
2019-02-28T19:48:47.593Z,49.07
2019-02-28T19:52:54.018Z,49.50
2019-02-28T19:56:58.378Z,60.30
2019-02-28T20:01:02.907Z,49.50
2019-02-28T20:05:07.692Z,53.73
2019-02-28T20:09:12.357Z,47.97
2019-02-28T20:13:17.072Z,57.50
2019-02-28T20:17:21.650Z,50.27
2019-02-28T20:21:26.206Z,53.40
2019-02-28T20:25:30.893Z,52.80
2019-02-28T20:29:35.471Z,47.13
2019-02-28T20:33:40.036Z,51.33
2019-02-28T20:37:44.606Z,50.60
2019-02-28T20:41:49.139Z,53.37
2019-02-28T20:45:53.729Z,51.90
2019-02-28T20:49:58.304Z,49.30
2019-02-28T20:54:02.864Z,53.10
2019-02-28T20:58:07.444Z,58.63
2019-02-28T21:02:11.984Z,53.63
2019-02-28T21:06:16.546Z,50.80
2019-02-28T21:10:21.204Z,54.40
2019-02-28T21:14:25.905Z,54.60
2019-02-28T21:18:30.460Z,51.70
2019-02-28T21:22:35.011Z,51.10
2019-02-28T21:26:39.569Z,58.80
2019-02-28T21:30:44.163Z,51.00
2019-02-28T21:34:48.750Z,56.60
2019-02-28T21:38:53.324Z,54.57
2019-02-28T21:42:57.860Z,54.50
2019-02-28T21:47:02.441Z,53.37
2019-02-28T21:51:07.090Z,56.33
2019-02-28T21:55:12.649Z,53.07
2019-02-28T21:59:17.213Z,47.60
2019-02-28T22:03:21.733Z,54.00
2019-02-28T22:07:26.311Z,58.53
2019-02-28T22:11:30.903Z,50.50
2019-02-28T22:15:35.471Z,52.93
2019-02-28T22:19:40.026Z,61.40
2019-02-28T22:23:44.655Z,51.10
2019-02-28T22:27:49.213Z,48.27
2019-02-28T22:32:02.895Z,56.63
2019-02-28T22:36:08.747Z,55.30
2019-02-28T22:40:13.301Z,55.87
2019-02-28T22:44:17.825Z,57.90
2019-02-28T22:48:22.383Z,59.13
2019-02-28T22:52:26.952Z,54.23
2019-02-28T22:56:31.516Z,64.80
2019-02-28T23:00:59.237Z,57.97
2019-02-28T23:05:03.768Z,53.77
2019-02-28T23:09:08.845Z,51.20
2019-02-28T23:13:13.532Z,46.00
2019-02-28T23:17:18.114Z,52.27
2019-02-28T23:21:22.685Z,52.80
2019-02-28T23:25:27.221Z,44.87
2019-02-28T23:29:31.789Z,47.20
2019-02-28T23:33:36.381Z,47.33
2019-02-28T23:37:40.941Z,42.87
2019-02-28T23:41:45.500Z,45.03
2019-02-28T23:45:50.028Z,49.10
2019-02-28T23:49:54.594Z,43.00
2019-02-28T23:53:59.165Z,39.50
2019-02-28T23:58:03.737Z,42.57
